sensor_id;sensor_type;location;lat;lon;timestamp;temperature;humidity
81136;DHT22;70622;50.886;3.890;2023-06-14T00:01:45;21.60;45.60
81136;DHT22;70622;50.886;3.890;2023-06-14T00:04:12;21.60;45.50
81136;DHT22;70622;50.886;3.890;2023-06-14T00:06:38;21.50;46.90
81136;DHT22;70622;50.886;3.890;2023-06-14T00:09:04;21.60;46.00
81136;DHT22;70622;50.886;3.890;2023-06-14T00:11:31;21.50;46.60
81136;DHT22;70622;50.886;3.890;2023-06-14T00:13:57;21.30;46.70
81136;DHT22;70622;50.886;3.890;2023-06-14T00:16:23;21.40;46.90
81136;DHT22;70622;50.886;3.890;2023-06-14T00:18:50;21.40;47.40
81136;DHT22;70622;50.886;3.890;2023-06-14T00:21:17;21.30;47.60
81136;DHT22;70622;50.886;3.890;2023-06-14T00:23:43;21.30;47.70
81136;DHT22;70622;50.886;3.890;2023-06-14T00:26:09;21.30;47.80
81136;DHT22;70622;50.886;3.890;2023-06-14T00:28:35;21.30;48.40
81136;DHT22;70622;50.886;3.890;2023-06-14T00:31:00;21.30;48.20
81136;DHT22;70622;50.886;3.890;2023-06-14T00:33:26;21.20;48.10
81136;DHT22;70622;50.886;3.890;2023-06-14T00:35:51;21.20;48.10
81136;DHT22;70622;50.886;3.890;2023-06-14T00:38:19;21.20;48.30
81136;DHT22;70622;50.886;3.890;2023-06-14T00:40:45;21.20;48.30
81136;DHT22;70622;50.886;3.890;2023-06-14T00:43:11;21.10;49.40
81136;DHT22;70622;50.886;3.890;2023-06-14T00:45:36;21.10;49.30
81136;DHT22;70622;50.886;3.890;2023-06-14T00:48:03;21.10;49.30
81136;DHT22;70622;50.886;3.890;2023-06-14T00:50:31;21.00;49.30
81136;DHT22;70622;50.886;3.890;2023-06-14T00:53:00;21.10;49.50
81136;DHT22;70622;50.886;3.890;2023-06-14T00:55:27;21.00;49.90
81136;DHT22;70622;50.886;3.890;2023-06-14T00:57:54;21.00;50.00
81136;DHT22;70622;50.886;3.890;2023-06-14T01:00:19;21.00;50.00
81136;DHT22;70622;50.886;3.890;2023-06-14T01:02:45;21.00;50.10
81136;DHT22;70622;50.886;3.890;2023-06-14T01:05:12;21.00;50.10
81136;DHT22;70622;50.886;3.890;2023-06-14T01:15:44;21.00;50.20
81136;DHT22;70622;50.886;3.890;2023-06-14T01:18:10;20.80;50.80
81136;DHT22;70622;50.886;3.890;2023-06-14T01:20:43;20.70;51.10
81136;DHT22;70622;50.886;3.890;2023-06-14T01:23:10;20.70;51.10
81136;DHT22;70622;50.886;3.890;2023-06-14T01:25:37;20.60;51.10
81136;DHT22;70622;50.886;3.890;2023-06-14T01:28:05;20.60;51.00
81136;DHT22;70622;50.886;3.890;2023-06-14T01:30:40;20.60;51.00
81136;DHT22;70622;50.886;3.890;2023-06-14T01:33:12;20.60;51.30
81136;DHT22;70622;50.886;3.890;2023-06-14T01:35:39;20.60;51.00
81136;DHT22;70622;50.886;3.890;2023-06-14T01:38:06;20.60;51.40
81136;DHT22;70622;50.886;3.890;2023-06-14T01:40:34;20.40;51.70
81136;DHT22;70622;50.886;3.890;2023-06-14T01:43:01;20.40;51.80
81136;DHT22;70622;50.886;3.890;2023-06-14T01:45:29;20.40;51.60
81136;DHT22;70622;50.886;3.890;2023-06-14T01:47:55;20.40;51.60
81136;DHT22;70622;50.886;3.890;2023-06-14T01:50:21;20.40;51.50
81136;DHT22;70622;50.886;3.890;2023-06-14T01:52:47;20.40;51.70
81136;DHT22;70622;50.886;3.890;2023-06-14T01:55:13;20.30;51.80
81136;DHT22;70622;50.886;3.890;2023-06-14T01:57:38;20.20;52.20
81136;DHT22;70622;50.886;3.890;2023-06-14T02:00:05;20.10;52.20
81136;DHT22;70622;50.886;3.890;2023-06-14T02:02:36;20.10;52.20
81136;DHT22;70622;50.886;3.890;2023-06-14T02:05:01;20.00;52.30
81136;DHT22;70622;50.886;3.890;2023-06-14T02:07:27;19.90;52.10
81136;DHT22;70622;50.886;3.890;2023-06-14T02:09:53;20.10;51.10
81136;DHT22;70622;50.886;3.890;2023-06-14T02:12:18;20.10;50.80
81136;DHT22;70622;50.886;3.890;2023-06-14T02:14:44;20.00;50.80
81136;DHT22;70622;50.886;3.890;2023-06-14T02:17:10;20.00;50.90
81136;DHT22;70622;50.886;3.890;2023-06-14T02:19:36;19.90;51.40
81136;DHT22;70622;50.886;3.890;2023-06-14T02:22:01;19.90;50.80
81136;DHT22;70622;50.886;3.890;2023-06-14T02:24:27;19.90;51.30
81136;DHT22;70622;50.886;3.890;2023-06-14T02:26:53;19.80;51.30
81136;DHT22;70622;50.886;3.890;2023-06-14T02:29:18;19.80;51.30
81136;DHT22;70622;50.886;3.890;2023-06-14T02:31:44;19.90;50.70
81136;DHT22;70622;50.886;3.890;2023-06-14T02:34:12;19.90;50.80
81136;DHT22;70622;50.886;3.890;2023-06-14T02:36:38;19.90;50.60
81136;DHT22;70622;50.886;3.890;2023-06-14T02:39:07;19.90;50.20
81136;DHT22;70622;50.886;3.890;2023-06-14T02:41:34;19.80;50.30
81136;DHT22;70622;50.886;3.890;2023-06-14T02:44:00;19.70;50.60
81136;DHT22;70622;50.886;3.890;2023-06-14T02:46:26;19.60;51.40
81136;DHT22;70622;50.886;3.890;2023-06-14T02:48:51;19.70;51.20
81136;DHT22;70622;50.886;3.890;2023-06-14T02:51:17;19.70;51.10
81136;DHT22;70622;50.886;3.890;2023-06-14T02:53:43;19.60;51.30
81136;DHT22;70622;50.886;3.890;2023-06-14T02:56:09;19.60;51.60
81136;DHT22;70622;50.886;3.890;2023-06-14T02:58:36;19.60;51.90
81136;DHT22;70622;50.886;3.890;2023-06-14T03:01:02;19.50;51.80
81136;DHT22;70622;50.886;3.890;2023-06-14T03:03:28;19.60;51.30
81136;DHT22;70622;50.886;3.890;2023-06-14T03:05:54;19.60;51.20
81136;DHT22;70622;50.886;3.890;2023-06-14T03:08:20;19.50;51.50
81136;DHT22;70622;50.886;3.890;2023-06-14T03:10:46;19.50;51.80
81136;DHT22;70622;50.886;3.890;2023-06-14T03:13:13;19.40;51.90
81136;DHT22;70622;50.886;3.890;2023-06-14T03:15:39;19.40;51.40
81136;DHT22;70622;50.886;3.890;2023-06-14T03:18:08;19.40;52.40
81136;DHT22;70622;50.886;3.890;2023-06-14T03:20:35;19.40;51.80
81136;DHT22;70622;50.886;3.890;2023-06-14T03:23:02;19.40;50.30
81136;DHT22;70622;50.886;3.890;2023-06-14T03:25:28;19.40;50.10
81136;DHT22;70622;50.886;3.890;2023-06-14T03:27:55;19.30;50.80
81136;DHT22;70622;50.886;3.890;2023-06-14T03:30:21;19.30;51.30
81136;DHT22;70622;50.886;3.890;2023-06-14T03:32:47;19.30;50.40
81136;DHT22;70622;50.886;3.890;2023-06-14T03:35:12;19.40;49.90
81136;DHT22;70622;50.886;3.890;2023-06-14T03:37:43;19.40;49.40
81136;DHT22;70622;50.886;3.890;2023-06-14T03:40:09;19.40;49.30
81136;DHT22;70622;50.886;3.890;2023-06-14T03:42:35;19.40;49.10
81136;DHT22;70622;50.886;3.890;2023-06-14T03:45:01;19.30;48.80
81136;DHT22;70622;50.886;3.890;2023-06-14T03:47:26;19.30;48.50
81136;DHT22;70622;50.886;3.890;2023-06-14T03:49:52;19.40;48.50
81136;DHT22;70622;50.886;3.890;2023-06-14T03:52:18;19.30;48.40
81136;DHT22;70622;50.886;3.890;2023-06-14T03:54:44;19.40;48.20
81136;DHT22;70622;50.886;3.890;2023-06-14T03:57:10;19.40;48.10
81136;DHT22;70622;50.886;3.890;2023-06-14T03:59:35;19.40;48.40
81136;DHT22;70622;50.886;3.890;2023-06-14T04:02:02;19.40;48.40
81136;DHT22;70622;50.886;3.890;2023-06-14T04:04:28;19.40;48.20
81136;DHT22;70622;50.886;3.890;2023-06-14T04:06:55;19.50;47.80
81136;DHT22;70622;50.886;3.890;2023-06-14T04:09:23;19.50;47.40
81136;DHT22;70622;50.886;3.890;2023-06-14T04:11:51;19.50;48.00
81136;DHT22;70622;50.886;3.890;2023-06-14T04:14:18;19.50;48.20
81136;DHT22;70622;50.886;3.890;2023-06-14T04:16:44;19.50;47.90
81136;DHT22;70622;50.886;3.890;2023-06-14T04:19:09;19.50;47.40
81136;DHT22;70622;50.886;3.890;2023-06-14T04:21:35;19.50;47.20
81136;DHT22;70622;50.886;3.890;2023-06-14T04:24:01;19.60;46.60
81136;DHT22;70622;50.886;3.890;2023-06-14T04:26:27;19.70;46.60
81136;DHT22;70622;50.886;3.890;2023-06-14T04:28:55;19.70;45.90
81136;DHT22;70622;50.886;3.890;2023-06-14T04:31:22;19.80;46.00
81136;DHT22;70622;50.886;3.890;2023-06-14T04:33:50;19.80;46.00
81136;DHT22;70622;50.886;3.890;2023-06-14T04:36:18;19.80;45.80
81136;DHT22;70622;50.886;3.890;2023-06-14T04:38:44;19.90;45.70
81136;DHT22;70622;50.886;3.890;2023-06-14T04:41:11;19.90;45.20
81136;DHT22;70622;50.886;3.890;2023-06-14T04:43:38;20.00;45.60
81136;DHT22;70622;50.886;3.890;2023-06-14T04:46:06;20.00;45.40
81136;DHT22;70622;50.886;3.890;2023-06-14T04:48:36;20.00;45.80
81136;DHT22;70622;50.886;3.890;2023-06-14T04:51:03;20.00;46.00
81136;DHT22;70622;50.886;3.890;2023-06-14T04:53:29;20.00;45.20
81136;DHT22;70622;50.886;3.890;2023-06-14T04:55:55;20.10;44.70
81136;DHT22;70622;50.886;3.890;2023-06-14T04:58:20;20.30;44.60
81136;DHT22;70622;50.886;3.890;2023-06-14T05:00:46;20.30;44.50
81136;DHT22;70622;50.886;3.890;2023-06-14T05:03:12;20.30;44.50
81136;DHT22;70622;50.886;3.890;2023-06-14T05:05:40;20.30;44.60
81136;DHT22;70622;50.886;3.890;2023-06-14T05:08:06;20.40;44.70
81136;DHT22;70622;50.886;3.890;2023-06-14T05:10:31;20.50;44.70
81136;DHT22;70622;50.886;3.890;2023-06-14T05:13:00;20.40;44.50
81136;DHT22;70622;50.886;3.890;2023-06-14T05:15:26;20.60;44.40
81136;DHT22;70622;50.886;3.890;2023-06-14T05:17:52;20.60;44.50
81136;DHT22;70622;50.886;3.890;2023-06-14T05:20:21;20.60;43.80
81136;DHT22;70622;50.886;3.890;2023-06-14T05:22:48;20.60;44.10
81136;DHT22;70622;50.886;3.890;2023-06-14T05:25:17;20.70;43.90
81136;DHT22;70622;50.886;3.890;2023-06-14T05:27:42;20.70;43.50
81136;DHT22;70622;50.886;3.890;2023-06-14T05:30:09;20.80;43.00
81136;DHT22;70622;50.886;3.890;2023-06-14T05:32:34;20.70;43.20
81136;DHT22;70622;50.886;3.890;2023-06-14T05:35:00;20.80;44.00
81136;DHT22;70622;50.886;3.890;2023-06-14T05:37:26;20.90;43.40
81136;DHT22;70622;50.886;3.890;2023-06-14T05:39:51;20.90;43.20
81136;DHT22;70622;50.886;3.890;2023-06-14T05:42:17;20.90;43.10
81136;DHT22;70622;50.886;3.890;2023-06-14T05:44:43;20.90;43.10
81136;DHT22;70622;50.886;3.890;2023-06-14T05:47:08;21.00;43.00
81136;DHT22;70622;50.886;3.890;2023-06-14T05:49:34;21.10;43.30
81136;DHT22;70622;50.886;3.890;2023-06-14T05:52:00;21.00;43.30
81136;DHT22;70622;50.886;3.890;2023-06-14T05:54:29;21.10;43.30
81136;DHT22;70622;50.886;3.890;2023-06-14T05:56:54;21.10;43.60
81136;DHT22;70622;50.886;3.890;2023-06-14T05:59:20;21.10;42.80
81136;DHT22;70622;50.886;3.890;2023-06-14T06:01:49;21.00;43.20
81136;DHT22;70622;50.886;3.890;2023-06-14T06:04:15;21.10;43.40
81136;DHT22;70622;50.886;3.890;2023-06-14T06:06:41;21.10;42.70
81136;DHT22;70622;50.886;3.890;2023-06-14T06:09:26;21.10;43.00
81136;DHT22;70622;50.886;3.890;2023-06-14T06:12:18;21.10;43.00
81136;DHT22;70622;50.886;3.890;2023-06-14T06:14:44;21.30;42.30
81136;DHT22;70622;50.886;3.890;2023-06-14T06:17:13;21.10;41.80
81136;DHT22;70622;50.886;3.890;2023-06-14T06:19:40;21.10;41.90
81136;DHT22;70622;50.886;3.890;2023-06-14T06:22:15;21.10;41.90
81136;DHT22;70622;50.886;3.890;2023-06-14T06:25:05;21.30;42.20
81136;DHT22;70622;50.886;3.890;2023-06-14T06:28:08;21.30;42.50
81136;DHT22;70622;50.886;3.890;2023-06-14T06:30:31;21.30;42.10
81136;DHT22;70622;50.886;3.890;2023-06-14T06:33:23;21.40;42.10
81136;DHT22;70622;50.886;3.890;2023-06-14T06:35:49;21.40;41.70
81136;DHT22;70622;50.886;3.890;2023-06-14T06:38:41;21.50;41.20
81136;DHT22;70622;50.886;3.890;2023-06-14T06:41:13;21.50;41.10
81136;DHT22;70622;50.886;3.890;2023-06-14T06:43:47;21.50;41.10
81136;DHT22;70622;50.886;3.890;2023-06-14T06:46:16;21.80;40.90
81136;DHT22;70622;50.886;3.890;2023-06-14T06:48:44;21.90;41.30
81136;DHT22;70622;50.886;3.890;2023-06-14T06:51:10;22.00;40.80
81136;DHT22;70622;50.886;3.890;2023-06-14T06:53:38;22.10;41.00
81136;DHT22;70622;50.886;3.890;2023-06-14T06:56:03;22.30;40.30
81136;DHT22;70622;50.886;3.890;2023-06-14T06:58:29;22.40;39.90
81136;DHT22;70622;50.886;3.890;2023-06-14T07:00:57;22.30;39.80
81136;DHT22;70622;50.886;3.890;2023-06-14T07:03:23;22.40;39.60
81136;DHT22;70622;50.886;3.890;2023-06-14T07:05:49;22.40;39.90
81136;DHT22;70622;50.886;3.890;2023-06-14T07:08:14;22.60;38.80
81136;DHT22;70622;50.886;3.890;2023-06-14T07:10:40;22.60;39.40
81136;DHT22;70622;50.886;3.890;2023-06-14T07:13:06;22.70;38.60
81136;DHT22;70622;50.886;3.890;2023-06-14T07:15:32;22.70;39.30
81136;DHT22;70622;50.886;3.890;2023-06-14T07:17:57;22.80;39.10
81136;DHT22;70622;50.886;3.890;2023-06-14T07:20:25;22.80;39.00
81136;DHT22;70622;50.886;3.890;2023-06-14T07:22:51;22.90;38.90
81136;DHT22;70622;50.886;3.890;2023-06-14T07:25:16;22.90;38.60
81136;DHT22;70622;50.886;3.890;2023-06-14T07:27:46;23.10;37.80
81136;DHT22;70622;50.886;3.890;2023-06-14T07:30:12;23.10;37.50
81136;DHT22;70622;50.886;3.890;2023-06-14T07:32:41;23.30;37.50
81136;DHT22;70622;50.886;3.890;2023-06-14T07:35:42;23.30;37.90
81136;DHT22;70622;50.886;3.890;2023-06-14T07:38:08;23.40;38.40
81136;DHT22;70622;50.886;3.890;2023-06-14T07:40:37;23.50;37.70
81136;DHT22;70622;50.886;3.890;2023-06-14T07:43:21;23.70;37.30
81136;DHT22;70622;50.886;3.890;2023-06-14T07:45:59;23.80;36.50
81136;DHT22;70622;50.886;3.890;2023-06-14T07:48:28;23.80;36.70
81136;DHT22;70622;50.886;3.890;2023-06-14T07:51:05;23.80;36.60
81136;DHT22;70622;50.886;3.890;2023-06-14T07:53:52;23.80;35.80
81136;DHT22;70622;50.886;3.890;2023-06-14T07:56:38;23.70;35.40
81136;DHT22;70622;50.886;3.890;2023-06-14T08:00:30;23.70;35.80
81136;DHT22;70622;50.886;3.890;2023-06-14T08:02:33;23.70;35.80
81136;DHT22;70622;50.886;3.890;2023-06-14T08:12:28;24.10;35.50
81136;DHT22;70622;50.886;3.890;2023-06-14T08:15:46;24.30;34.20
81136;DHT22;70622;50.886;3.890;2023-06-14T08:21:56;24.50;34.50
81136;DHT22;70622;50.886;3.890;2023-06-14T08:24:32;24.70;34.50
81136;DHT22;70622;50.886;3.890;2023-06-14T08:26:58;24.90;35.30
81136;DHT22;70622;50.886;3.890;2023-06-14T08:29:28;24.80;33.70
81136;DHT22;70622;50.886;3.890;2023-06-14T08:32:09;24.90;34.00
81136;DHT22;70622;50.886;3.890;2023-06-14T08:34:40;25.10;33.80
81136;DHT22;70622;50.886;3.890;2023-06-14T08:37:06;25.20;34.30
81136;DHT22;70622;50.886;3.890;2023-06-14T08:39:33;25.20;34.80
81136;DHT22;70622;50.886;3.890;2023-06-14T08:42:01;25.30;34.20
81136;DHT22;70622;50.886;3.890;2023-06-14T08:44:28;25.40;33.10
81136;DHT22;70622;50.886;3.890;2023-06-14T08:46:56;25.40;33.60
81136;DHT22;70622;50.886;3.890;2023-06-14T08:49:23;25.50;32.10
81136;DHT22;70622;50.886;3.890;2023-06-14T08:52:07;25.50;32.80
81136;DHT22;70622;50.886;3.890;2023-06-14T08:54:36;25.60;31.50
81136;DHT22;70622;50.886;3.890;2023-06-14T08:57:11;25.80;31.20
81136;DHT22;70622;50.886;3.890;2023-06-14T08:59:46;25.70;30.80
81136;DHT22;70622;50.886;3.890;2023-06-14T09:02:15;25.80;30.70
81136;DHT22;70622;50.886;3.890;2023-06-14T09:04:43;25.70;31.50
81136;DHT22;70622;50.886;3.890;2023-06-14T09:10:11;25.80;31.80
81136;DHT22;70622;50.886;3.890;2023-06-14T09:12:37;25.90;31.10
81136;DHT22;70622;50.886;3.890;2023-06-14T09:15:07;26.00;30.70
81136;DHT22;70622;50.886;3.890;2023-06-14T09:17:36;26.10;30.70
81136;DHT22;70622;50.886;3.890;2023-06-14T09:20:04;26.10;30.20
81136;DHT22;70622;50.886;3.890;2023-06-14T09:22:40;26.30;30.20
81136;DHT22;70622;50.886;3.890;2023-06-14T09:25:15;26.30;32.20
81136;DHT22;70622;50.886;3.890;2023-06-14T09:27:46;26.40;30.50
81136;DHT22;70622;50.886;3.890;2023-06-14T09:30:20;26.30;29.00
81136;DHT22;70622;50.886;3.890;2023-06-14T09:32:46;26.40;29.20
81136;DHT22;70622;50.886;3.890;2023-06-14T09:35:12;26.50;29.40
81136;DHT22;70622;50.886;3.890;2023-06-14T09:37:40;26.50;29.50
81136;DHT22;70622;50.886;3.890;2023-06-14T09:40:07;26.60;28.40
81136;DHT22;70622;50.886;3.890;2023-06-14T09:42:33;26.40;29.50
81136;DHT22;70622;50.886;3.890;2023-06-14T09:45:04;26.50;29.10
81136;DHT22;70622;50.886;3.890;2023-06-14T09:47:30;26.60;28.70
81136;DHT22;70622;50.886;3.890;2023-06-14T09:49:56;26.60;28.50
81136;DHT22;70622;50.886;3.890;2023-06-14T09:52:22;26.60;28.50
81136;DHT22;70622;50.886;3.890;2023-06-14T09:54:49;26.70;28.80
81136;DHT22;70622;50.886;3.890;2023-06-14T09:57:26;26.80;28.10
81136;DHT22;70622;50.886;3.890;2023-06-14T09:59:57;26.80;27.80
81136;DHT22;70622;50.886;3.890;2023-06-14T10:02:54;26.70;27.10
81136;DHT22;70622;50.886;3.890;2023-06-14T10:05:28;26.80;27.30
81136;DHT22;70622;50.886;3.890;2023-06-14T10:08:07;26.80;27.50
81136;DHT22;70622;50.886;3.890;2023-06-14T10:10:39;26.80;27.40
81136;DHT22;70622;50.886;3.890;2023-06-14T10:13:07;26.80;28.00
81136;DHT22;70622;50.886;3.890;2023-06-14T10:16:13;26.90;28.10
81136;DHT22;70622;50.886;3.890;2023-06-14T10:19:11;27.00;27.40
81136;DHT22;70622;50.886;3.890;2023-06-14T10:25:31;27.10;28.20
81136;DHT22;70622;50.886;3.890;2023-06-14T10:28:18;27.20;27.90
81136;DHT22;70622;50.886;3.890;2023-06-14T10:31:08;27.30;27.40
81136;DHT22;70622;50.886;3.890;2023-06-14T10:33:49;27.30;27.40
81136;DHT22;70622;50.886;3.890;2023-06-14T10:36:31;27.30;27.80
81136;DHT22;70622;50.886;3.890;2023-06-14T10:41:54;27.10;27.00
81136;DHT22;70622;50.886;3.890;2023-06-14T10:47:07;27.40;27.30
81136;DHT22;70622;50.886;3.890;2023-06-14T10:52:36;27.60;27.30
81136;DHT22;70622;50.886;3.890;2023-06-14T10:57:46;27.80;26.70
81136;DHT22;70622;50.886;3.890;2023-06-14T11:00:14;27.80;27.40
81136;DHT22;70622;50.886;3.890;2023-06-14T11:05:55;28.00;26.50
81136;DHT22;70622;50.886;3.890;2023-06-14T11:09:02;28.00;27.00
81136;DHT22;70622;50.886;3.890;2023-06-14T11:11:32;27.90;26.90
81136;DHT22;70622;50.886;3.890;2023-06-14T11:14:00;27.90;27.20
81136;DHT22;70622;50.886;3.890;2023-06-14T11:16:27;27.90;27.80
81136;DHT22;70622;50.886;3.890;2023-06-14T11:18:53;27.80;27.20
81136;DHT22;70622;50.886;3.890;2023-06-14T11:21:20;27.70;27.40
81136;DHT22;70622;50.886;3.890;2023-06-14T11:23:50;27.70;27.50
81136;DHT22;70622;50.886;3.890;2023-06-14T11:26:24;27.70;26.60
81136;DHT22;70622;50.886;3.890;2023-06-14T11:28:55;27.70;26.50
81136;DHT22;70622;50.886;3.890;2023-06-14T11:31:25;27.80;26.20
81136;DHT22;70622;50.886;3.890;2023-06-14T11:33:54;27.90;25.70
81136;DHT22;70622;50.886;3.890;2023-06-14T11:36:21;27.90;25.50
81136;DHT22;70622;50.886;3.890;2023-06-14T11:38:46;27.90;26.70
81136;DHT22;70622;50.886;3.890;2023-06-14T11:41:12;27.90;26.00
81136;DHT22;70622;50.886;3.890;2023-06-14T11:43:39;27.90;26.50
81136;DHT22;70622;50.886;3.890;2023-06-14T11:46:06;28.00;26.30
81136;DHT22;70622;50.886;3.890;2023-06-14T11:48:39;27.90;26.10
81136;DHT22;70622;50.886;3.890;2023-06-14T11:51:05;27.90;25.70
81136;DHT22;70622;50.886;3.890;2023-06-14T11:53:31;28.00;25.90
81136;DHT22;70622;50.886;3.890;2023-06-14T11:56:00;28.00;25.60
81136;DHT22;70622;50.886;3.890;2023-06-14T11:58:26;28.00;25.60
81136;DHT22;70622;50.886;3.890;2023-06-14T12:00:56;28.20;25.60
81136;DHT22;70622;50.886;3.890;2023-06-14T12:03:25;28.10;25.60
81136;DHT22;70622;50.886;3.890;2023-06-14T12:06:05;28.30;26.10
81136;DHT22;70622;50.886;3.890;2023-06-14T12:08:36;28.30;25.40
81136;DHT22;70622;50.886;3.890;2023-06-14T12:11:05;28.40;25.50
81136;DHT22;70622;50.886;3.890;2023-06-14T12:13:31;28.40;26.20
81136;DHT22;70622;50.886;3.890;2023-06-14T12:15:57;28.30;25.00
81136;DHT22;70622;50.886;3.890;2023-06-14T12:18:33;28.40;24.80
81136;DHT22;70622;50.886;3.890;2023-06-14T12:21:00;28.30;25.40
81136;DHT22;70622;50.886;3.890;2023-06-14T12:23:39;28.40;25.10
81136;DHT22;70622;50.886;3.890;2023-06-14T12:26:05;28.50;25.20
81136;DHT22;70622;50.886;3.890;2023-06-14T12:28:31;28.50;25.50
81136;DHT22;70622;50.886;3.890;2023-06-14T12:30:57;28.50;24.40
81136;DHT22;70622;50.886;3.890;2023-06-14T12:33:24;28.70;23.80
81136;DHT22;70622;50.886;3.890;2023-06-14T12:35:50;28.70;24.50
81136;DHT22;70622;50.886;3.890;2023-06-14T12:38:16;28.60;23.90
81136;DHT22;70622;50.886;3.890;2023-06-14T12:40:42;28.60;23.80
81136;DHT22;70622;50.886;3.890;2023-06-14T12:43:08;28.70;24.10
81136;DHT22;70622;50.886;3.890;2023-06-14T12:45:34;28.80;24.30
81136;DHT22;70622;50.886;3.890;2023-06-14T12:47:59;28.80;24.10
81136;DHT22;70622;50.886;3.890;2023-06-14T12:50:25;28.90;25.00
81136;DHT22;70622;50.886;3.890;2023-06-14T12:52:54;28.80;23.80
81136;DHT22;70622;50.886;3.890;2023-06-14T12:55:19;28.80;23.80
81136;DHT22;70622;50.886;3.890;2023-06-14T12:57:45;28.80;23.30
81136;DHT22;70622;50.886;3.890;2023-06-14T13:00:11;28.90;23.40
81136;DHT22;70622;50.886;3.890;2023-06-14T13:02:38;29.00;23.70
81136;DHT22;70622;50.886;3.890;2023-06-14T13:05:04;29.30;23.90
81136;DHT22;70622;50.886;3.890;2023-06-14T13:07:31;29.30;23.60
81136;DHT22;70622;50.886;3.890;2023-06-14T13:09:56;29.20;23.90
81136;DHT22;70622;50.886;3.890;2023-06-14T13:12:22;29.30;24.10
81136;DHT22;70622;50.886;3.890;2023-06-14T13:14:47;29.20;23.30
81136;DHT22;70622;50.886;3.890;2023-06-14T13:17:13;29.30;24.00
81136;DHT22;70622;50.886;3.890;2023-06-14T13:19:39;29.30;22.90
81136;DHT22;70622;50.886;3.890;2023-06-14T13:22:04;29.10;24.10
81136;DHT22;70622;50.886;3.890;2023-06-14T13:24:34;29.20;23.20
81136;DHT22;70622;50.886;3.890;2023-06-14T13:26:59;29.30;23.40
81136;DHT22;70622;50.886;3.890;2023-06-14T13:29:26;29.40;23.90
81136;DHT22;70622;50.886;3.890;2023-06-14T13:31:52;29.40;24.20
81136;DHT22;70622;50.886;3.890;2023-06-14T13:34:18;29.50;23.20
81136;DHT22;70622;50.886;3.890;2023-06-14T13:36:44;29.60;22.90
81136;DHT22;70622;50.886;3.890;2023-06-14T13:39:09;29.60;23.30
81136;DHT22;70622;50.886;3.890;2023-06-14T13:41:36;29.60;23.30
81136;DHT22;70622;50.886;3.890;2023-06-14T13:44:02;29.90;23.00
81136;DHT22;70622;50.886;3.890;2023-06-14T13:46:31;30.00;23.20
81136;DHT22;70622;50.886;3.890;2023-06-14T13:48:57;30.00;23.40
81136;DHT22;70622;50.886;3.890;2023-06-14T13:51:23;30.20;23.10
81136;DHT22;70622;50.886;3.890;2023-06-14T13:53:49;30.10;22.30
81136;DHT22;70622;50.886;3.890;2023-06-14T13:56:16;30.10;23.00
81136;DHT22;70622;50.886;3.890;2023-06-14T13:58:42;29.90;22.60
81136;DHT22;70622;50.886;3.890;2023-06-14T14:01:08;30.20;23.50
81136;DHT22;70622;50.886;3.890;2023-06-14T14:03:35;30.50;22.30
81136;DHT22;70622;50.886;3.890;2023-06-14T14:06:01;30.90;22.30
81136;DHT22;70622;50.886;3.890;2023-06-14T14:08:27;32.20;21.00
81136;DHT22;70622;50.886;3.890;2023-06-14T14:10:53;33.40;20.70
81136;DHT22;70622;50.886;3.890;2023-06-14T14:13:19;34.60;19.60
81136;DHT22;70622;50.886;3.890;2023-06-14T14:15:46;35.90;18.40
81136;DHT22;70622;50.886;3.890;2023-06-14T14:18:12;36.10;17.70
81136;DHT22;70622;50.886;3.890;2023-06-14T14:20:37;36.50;18.20
81136;DHT22;70622;50.886;3.890;2023-06-14T14:23:03;36.90;17.20
81136;DHT22;70622;50.886;3.890;2023-06-14T14:25:30;37.00;17.00
81136;DHT22;70622;50.886;3.890;2023-06-14T14:27:55;37.20;16.50
81136;DHT22;70622;50.886;3.890;2023-06-14T14:30:21;38.30;16.80
81136;DHT22;70622;50.886;3.890;2023-06-14T14:32:49;38.20;16.60
81136;DHT22;70622;50.886;3.890;2023-06-14T14:35:16;38.30;15.80
81136;DHT22;70622;50.886;3.890;2023-06-14T14:37:43;38.80;15.60
81136;DHT22;70622;50.886;3.890;2023-06-14T14:40:09;39.10;15.80
81136;DHT22;70622;50.886;3.890;2023-06-14T14:42:35;38.00;16.20
81136;DHT22;70622;50.886;3.890;2023-06-14T14:45:01;38.20;16.30
81136;DHT22;70622;50.886;3.890;2023-06-14T14:47:27;38.00;16.40
81136;DHT22;70622;50.886;3.890;2023-06-14T14:49:53;38.00;16.80
81136;DHT22;70622;50.886;3.890;2023-06-14T14:52:18;38.00;16.30
81136;DHT22;70622;50.886;3.890;2023-06-14T14:54:44;38.60;15.80
81136;DHT22;70622;50.886;3.890;2023-06-14T14:57:10;38.50;15.70
81136;DHT22;70622;50.886;3.890;2023-06-14T14:59:36;38.70;15.50
81136;DHT22;70622;50.886;3.890;2023-06-14T15:02:02;39.00;15.50
81136;DHT22;70622;50.886;3.890;2023-06-14T15:04:28;38.90;15.20
81136;DHT22;70622;50.886;3.890;2023-06-14T15:06:53;39.80;15.20
81136;DHT22;70622;50.886;3.890;2023-06-14T15:09:19;40.00;14.20
81136;DHT22;70622;50.886;3.890;2023-06-14T15:11:45;39.40;14.70
81136;DHT22;70622;50.886;3.890;2023-06-14T15:14:11;39.70;14.40
81136;DHT22;70622;50.886;3.890;2023-06-14T15:16:37;39.40;14.20
81136;DHT22;70622;50.886;3.890;2023-06-14T15:19:03;39.20;14.50
81136;DHT22;70622;50.886;3.890;2023-06-14T15:21:28;38.70;15.80
81136;DHT22;70622;50.886;3.890;2023-06-14T15:23:54;39.00;14.40
81136;DHT22;70622;50.886;3.890;2023-06-14T15:26:20;39.60;14.30
81136;DHT22;70622;50.886;3.890;2023-06-14T15:28:46;39.60;14.30
81136;DHT22;70622;50.886;3.890;2023-06-14T15:31:11;39.60;14.30
81136;DHT22;70622;50.886;3.890;2023-06-14T15:33:37;40.00;13.90
81136;DHT22;70622;50.886;3.890;2023-06-14T15:36:06;39.50;14.00
81136;DHT22;70622;50.886;3.890;2023-06-14T15:38:40;39.10;14.00
81136;DHT22;70622;50.886;3.890;2023-06-14T15:41:05;39.80;14.50
81136;DHT22;70622;50.886;3.890;2023-06-14T15:43:33;40.40;13.90
81136;DHT22;70622;50.886;3.890;2023-06-14T15:45:58;40.60;12.70
81136;DHT22;70622;50.886;3.890;2023-06-14T15:48:24;39.90;13.10
81136;DHT22;70622;50.886;3.890;2023-06-14T15:50:49;40.40;13.80
81136;DHT22;70622;50.886;3.890;2023-06-14T15:53:15;40.50;13.10
81136;DHT22;70622;50.886;3.890;2023-06-14T15:55:41;40.20;12.80
81136;DHT22;70622;50.886;3.890;2023-06-14T15:58:07;40.70;13.10
81136;DHT22;70622;50.886;3.890;2023-06-14T16:00:33;41.10;12.80
81136;DHT22;70622;50.886;3.890;2023-06-14T16:02:59;40.80;12.40
81136;DHT22;70622;50.886;3.890;2023-06-14T16:05:24;40.40;12.80
81136;DHT22;70622;50.886;3.890;2023-06-14T16:07:50;40.20;12.60
81136;DHT22;70622;50.886;3.890;2023-06-14T16:10:15;40.30;12.70
81136;DHT22;70622;50.886;3.890;2023-06-14T16:12:41;40.80;12.40
81136;DHT22;70622;50.886;3.890;2023-06-14T16:15:07;40.10;12.70
81136;DHT22;70622;50.886;3.890;2023-06-14T16:17:33;40.70;12.90
81136;DHT22;70622;50.886;3.890;2023-06-14T16:19:59;41.40;12.40